createdAt,value
2022-11-09T00:00:38.820Z,10.04
2022-11-09T00:02:43.782Z,10.55
2022-11-09T00:04:41.179Z,10.66
2022-11-09T00:06:42.261Z,10.84
2022-11-09T00:08:43.986Z,10.99
2022-11-09T00:10:45.005Z,10.99
2022-11-09T00:12:46.860Z,10.86
2022-11-09T00:14:48.523Z,11.24
2022-11-09T00:16:49.718Z,11.31
2022-11-09T00:18:50.671Z,11.08
2022-11-09T00:20:52.392Z,10.65
2022-11-09T00:22:53.616Z,10.66
2022-11-09T00:24:54.690Z,10.79
2022-11-09T00:26:55.819Z,10.82
2022-11-09T00:28:57.099Z,10.84
2022-11-09T00:30:58.404Z,10.81
2022-11-09T00:32:59.692Z,10.92
2022-11-09T00:35:00.818Z,10.64
2022-11-09T00:37:02.392Z,11.04
2022-11-09T00:38:03.570Z,11.17
2022-11-09T00:40:04.608Z,11.35
2022-11-09T00:42:05.780Z,11.36
2022-11-09T00:44:07.420Z,11.33
2022-11-09T00:46:08.649Z,11.52
2022-11-09T00:48:09.969Z,11.39
2022-11-09T00:50:11.773Z,11.41
2022-11-09T00:52:12.925Z,11.65
2022-11-09T00:54:14.423Z,11.31
2022-11-09T00:56:16.090Z,11.08
2022-11-09T00:58:17.631Z,11.31
2022-11-09T01:00:19.471Z,11.41
2022-11-09T01:02:20.829Z,11.49
2022-11-09T01:04:21.821Z,11.27
2022-11-09T01:06:23.330Z,11.15
2022-11-09T01:08:24.729Z,11.14
2022-11-09T01:10:25.757Z,11.38
2022-11-09T01:12:27.244Z,11.42
2022-11-09T01:14:29.105Z,10.93
2022-11-09T01:16:30.023Z,11.05
2022-11-09T01:18:31.758Z,10.81
2022-11-09T01:20:32.900Z,11.1
2022-11-09T01:22:34.758Z,11.25
2022-11-09T01:24:36.402Z,11
2022-11-09T01:26:38.230Z,10.98
2022-11-09T01:28:39.460Z,10.79
2022-11-09T01:30:41.007Z,10.76
2022-11-09T01:32:42.829Z,10.73
2022-11-09T01:34:44.750Z,10.75
2022-11-09T01:36:46.081Z,10.79
2022-11-09T01:38:47.428Z,10.79
2022-11-09T01:40:48.423Z,10.75
2022-11-09T01:42:50.186Z,10.67
2022-11-09T01:44:51.999Z,10.71
2022-11-09T01:46:53.399Z,10.8
2022-11-09T01:48:54.461Z,10.82
2022-11-09T01:50:56.083Z,10.8
2022-11-09T01:52:57.798Z,10.72
2022-11-09T01:54:59.651Z,10.51
2022-11-09T01:57:01.188Z,10.32
2022-11-09T01:59:02.257Z,10.18
2022-11-09T02:01:03.421Z,10.59
2022-11-09T02:03:05.073Z,10.69
2022-11-09T02:05:06.390Z,10.7
2022-11-09T02:07:07.671Z,10.45
2022-11-09T02:09:08.811Z,10.38
2022-11-09T02:11:10.300Z,10.59
2022-11-09T02:13:11.688Z,10.82
2022-11-09T02:15:13.111Z,10.95
2022-11-09T02:17:14.429Z,10.93
2022-11-09T02:19:16.167Z,11.03
2022-11-09T02:21:17.199Z,11.03
2022-11-09T02:23:18.831Z,11.29
2022-11-09T02:25:20.323Z,11.24
2022-11-09T02:27:21.778Z,11.11
2022-11-09T02:29:23.436Z,11.2
2022-11-09T02:31:24.632Z,11.1
2022-11-09T02:33:25.891Z,10.97
2022-11-09T02:35:27.743Z,10.86
2022-11-09T02:37:29.457Z,10.83
2022-11-09T02:39:31.359Z,10.77
2022-11-09T02:41:33.101Z,10.73
2022-11-09T02:43:34.280Z,10.93
2022-11-09T02:45:35.779Z,10.89
2022-11-09T02:47:37.451Z,10.98
2022-11-09T02:49:39.131Z,10.9
2022-11-09T02:51:40.623Z,10.87
2022-11-09T02:53:41.981Z,10.93
2022-11-09T02:55:43.486Z,11.1
2022-11-09T02:57:45.400Z,11.12
2022-11-09T02:59:46.895Z,11.06
2022-11-09T03:01:47.926Z,10.8
2022-11-09T03:03:49.004Z,10.31
2022-11-09T03:05:50.556Z,10.08
2022-11-09T03:07:51.738Z,10.01
2022-11-09T03:09:52.938Z,9.74
2022-11-09T03:11:53.991Z,9.57
2022-11-09T03:13:55.699Z,9.85
2022-11-09T03:15:57.101Z,10.2
2022-11-09T03:17:58.197Z,10.05
2022-11-09T03:19:59.163Z,9.8
2022-11-09T03:22:00.547Z,10
2022-11-09T03:24:02.262Z,10.2
2022-11-09T03:26:03.796Z,10.31
2022-11-09T03:28:05.113Z,10.37
2022-11-09T03:30:06.305Z,10.43
2022-11-09T03:32:08.161Z,10.44
2022-11-09T03:34:09.990Z,10.27
2022-11-09T03:36:11.377Z,10.27
2022-11-09T03:38:12.979Z,10.24
2022-11-09T03:40:14.174Z,10.18
2022-11-09T03:42:15.314Z,10.01
2022-11-09T03:44:17.100Z,9.95
2022-11-09T03:46:18.763Z,10.13
2022-11-09T03:48:20.330Z,10.28
2022-11-09T03:50:21.378Z,10.43
2022-11-09T03:52:22.830Z,10.44
2022-11-09T03:54:24.262Z,10.39
2022-11-09T03:56:25.593Z,10.38
2022-11-09T03:58:27.251Z,10.4
2022-11-09T04:00:28.973Z,10.37
2022-11-09T04:02:30.792Z,10.46
2022-11-09T04:04:31.964Z,10.48
2022-11-09T04:06:33.582Z,10.45
2022-11-09T04:08:35.326Z,10.41
2022-11-09T04:10:37.204Z,10.37
2022-11-09T04:12:38.869Z,10.38
2022-11-09T04:14:40.216Z,10.44
2022-11-09T04:16:41.689Z,10.44
2022-11-09T04:18:43.387Z,10.36
2022-11-09T04:20:44.845Z,10.36
2022-11-09T04:22:46.083Z,10.34
2022-11-09T04:24:47.302Z,10.33
2022-11-09T04:26:49.040Z,10.33
2022-11-09T04:28:50.628Z,10.27
2022-11-09T04:30:51.741Z,10.27
2022-11-09T04:32:53.374Z,10.41
2022-11-09T04:34:55.070Z,10.38
2022-11-09T04:36:56.271Z,10.19
2022-11-09T04:38:57.788Z,10.11
2022-11-09T04:40:59.110Z,10.16
2022-11-09T04:43:00.614Z,10.25
2022-11-09T04:45:01.714Z,10.23
2022-11-09T04:47:02.797Z,10.22
2022-11-09T04:51:05.617Z,10.1
2022-11-09T04:53:07.964Z,10.13
2022-11-09T04:55:08.518Z,10.15
2022-11-09T04:57:09.827Z,10.09
2022-11-09T04:59:10.954Z,10.08
2022-11-09T05:01:11.950Z,10.08
2022-11-09T05:03:13.137Z,10.06
2022-11-09T05:05:14.972Z,10.05
2022-11-09T05:07:16.215Z,10.08
2022-11-09T05:09:18.070Z,9.95
2022-11-09T05:11:19.431Z,9.85
2022-11-09T05:13:21.109Z,9.81
2022-11-09T05:15:22.647Z,9.81
2022-11-09T05:17:24.452Z,9.79
2022-11-09T05:19:26.267Z,9.78
2022-11-09T05:21:27.992Z,9.78
2022-11-09T05:23:29.261Z,9.88
2022-11-09T05:25:30.157Z,10
2022-11-09T05:27:31.734Z,10.01
2022-11-09T05:29:33.081Z,10.09
2022-11-09T05:31:34.747Z,10.1
2022-11-09T05:33:36.225Z,10.09
2022-11-09T05:35:37.377Z,10.05
2022-11-09T05:37:38.943Z,10.07
2022-11-09T05:39:40.376Z,10.08
2022-11-09T05:41:42.078Z,10.11
2022-11-09T05:43:43.232Z,10.09
2022-11-09T05:45:44.858Z,10.13
2022-11-09T05:47:46.565Z,10.18
2022-11-09T05:49:47.894Z,10.18
2022-11-09T05:51:49.476Z,10.19
2022-11-09T05:53:51.141Z,10.16
2022-11-09T05:55:52.294Z,10.14
2022-11-09T05:57:53.341Z,10.13
2022-11-09T05:59:54.310Z,10.2
2022-11-09T06:01:55.483Z,10.24
2022-11-09T06:03:56.709Z,10.27
2022-11-09T06:05:58.211Z,10.27
2022-11-09T06:07:59.265Z,10.27
2022-11-09T06:10:01.054Z,10.24
2022-11-09T06:12:02.401Z,10.27
2022-11-09T06:14:04.295Z,10.26
2022-11-09T06:16:05.854Z,10.22
2022-11-09T06:18:07.608Z,10.25
2022-11-09T06:20:08.712Z,10.28
2022-11-09T06:22:10.161Z,10.34
2022-11-09T06:24:11.763Z,10.33
2022-11-09T06:26:13.177Z,10.38
2022-11-09T06:28:14.073Z,10.39
2022-11-09T06:30:15.932Z,10.44
2022-11-09T06:32:17.469Z,10.4
2022-11-09T06:34:19.021Z,10.46
2022-11-09T06:36:20.214Z,10.46
2022-11-09T06:38:21.908Z,10.47
2022-11-09T06:40:23.571Z,10.5
2022-11-09T06:42:24.930Z,10.53
2022-11-09T06:44:25.944Z,10.56
2022-11-09T06:46:27.086Z,10.62
2022-11-09T06:48:28.037Z,10.6
2022-11-09T06:50:29.365Z,10.59
2022-11-09T06:52:30.615Z,10.66
2022-11-09T06:54:32.010Z,10.7
2022-11-09T06:56:32.938Z,10.74
2022-11-09T06:58:34.122Z,10.77
2022-11-09T07:00:35.253Z,10.76
2022-11-09T07:02:36.753Z,10.81
2022-11-09T07:04:38.212Z,10.8
2022-11-09T07:06:40.266Z,10.83
2022-11-09T07:08:41.873Z,10.83
2022-11-09T07:10:42.918Z,10.83
2022-11-09T07:14:45.633Z,10.79
2022-11-09T07:16:47.068Z,10.81
2022-11-09T07:18:48.749Z,10.83
2022-11-09T07:20:50.513Z,10.87
2022-11-09T07:22:51.552Z,10.92
2022-11-09T07:25:36.735Z,10.93
2022-11-09T07:27:37.732Z,11.06
2022-11-09T07:29:39.602Z,11.05
2022-11-09T07:31:40.823Z,11.09
2022-11-09T07:33:42.241Z,11.14
2022-11-09T07:35:43.218Z,11.14
2022-11-09T07:37:44.609Z,11.12
2022-11-09T07:39:46.109Z,11.18
2022-11-09T07:41:47.541Z,11.2
2022-11-09T07:43:49.070Z,11.22
2022-11-09T07:45:50.696Z,11.23
2022-11-09T07:47:52.016Z,11.2
2022-11-09T07:49:53.359Z,11.23
2022-11-09T07:51:54.759Z,11.21
2022-11-09T07:53:55.836Z,11.2
2022-11-09T07:55:56.746Z,11.21
2022-11-09T07:57:57.925Z,11.24
2022-11-09T07:59:58.991Z,11.26
2022-11-09T08:02:00.580Z,11.27
2022-11-09T08:04:02.164Z,11.27
2022-11-09T08:06:03.552Z,11.29
2022-11-09T08:08:04.469Z,11.29
2022-11-09T08:10:05.474Z,11.3
2022-11-09T08:12:07.200Z,11.31
2022-11-09T08:14:08.699Z,11.32
2022-11-09T08:16:10.325Z,11.36
2022-11-09T08:18:12.006Z,11.36
2022-11-09T08:20:13.660Z,11.38
2022-11-09T08:22:14.666Z,11.36
2022-11-09T08:24:16.333Z,11.39
2022-11-09T08:26:17.436Z,11.39
2022-11-09T08:28:19.435Z,11.43
2022-11-09T08:30:20.477Z,11.46
2022-11-09T08:32:21.975Z,11.49
2022-11-09T08:34:23.464Z,11.57
2022-11-09T08:36:24.573Z,11.62
2022-11-09T08:38:26.196Z,11.62
2022-11-09T08:40:27.842Z,11.66
2022-11-09T08:42:29.646Z,11.72
2022-11-09T08:44:30.733Z,11.74
2022-11-09T08:46:34.805Z,11.78
2022-11-09T08:48:33.471Z,11.78
2022-11-09T08:50:35.286Z,11.82
2022-11-09T08:52:36.489Z,11.8
2022-11-09T08:54:37.669Z,11.83
2022-11-09T08:56:39.503Z,11.86
2022-11-09T08:58:40.991Z,11.83
2022-11-09T09:00:41.975Z,11.91
2022-11-09T09:02:43.477Z,11.95
2022-11-09T09:04:45.257Z,11.95
2022-11-09T09:06:46.608Z,11.95
2022-11-09T09:08:47.772Z,12.01
2022-11-09T09:10:49.219Z,12.01
2022-11-09T09:12:50.266Z,12.04
2022-11-09T09:14:51.643Z,12.04
2022-11-09T09:16:53.104Z,12.08
2022-11-09T09:18:54.244Z,12.04
2022-11-09T09:20:55.653Z,12.1
2022-11-09T09:22:56.702Z,12.09
2022-11-09T09:24:57.644Z,12.14
2022-11-09T09:26:59.037Z,12.2
2022-11-09T09:29:00.746Z,12.25
2022-11-09T09:33:04.135Z,12.28
2022-11-09T09:35:05.095Z,12.32
2022-11-09T09:37:06.117Z,12.29
2022-11-09T09:39:07.130Z,12.3
2022-11-09T09:41:08.280Z,12.25
2022-11-09T09:43:09.899Z,12.26
2022-11-09T09:45:11.435Z,12.29
2022-11-09T09:47:13.085Z,12.3
2022-11-09T09:49:14.552Z,12.29
2022-11-09T09:51:16.241Z,12.27
2022-11-09T09:53:24.093Z,12.29
2022-11-09T09:55:18.948Z,12.32
2022-11-09T09:57:20.128Z,12.33
2022-11-09T09:59:21.385Z,12.34
2022-11-09T10:01:22.535Z,12.31
2022-11-09T10:03:24.355Z,12.37
2022-11-09T10:05:25.628Z,12.4
2022-11-09T10:07:26.758Z,12.48
2022-11-09T10:09:28.613Z,12.46
2022-11-09T10:11:30.189Z,12.51
2022-11-09T10:13:31.455Z,12.52
2022-11-09T10:15:32.689Z,12.58
2022-11-09T10:17:34.497Z,12.58
2022-11-09T10:19:36.095Z,12.72
2022-11-09T10:21:37.693Z,12.74
2022-11-09T10:23:39.560Z,12.9
2022-11-09T10:26:02.803Z,13.26
2022-11-09T10:27:42.110Z,13.17
2022-11-09T10:29:43.704Z,13.42
2022-11-09T10:31:44.657Z,13.73
2022-11-09T10:33:45.886Z,13.96
2022-11-09T10:35:47.018Z,14.12
2022-11-09T10:37:48.307Z,14.29
2022-11-09T10:39:50.369Z,14.7
2022-11-09T10:41:51.783Z,14.65
2022-11-09T10:43:53.553Z,14.4
2022-11-09T10:45:55.372Z,14.4
2022-11-09T10:47:56.674Z,14.68
2022-11-09T10:49:57.633Z,14.75
2022-11-09T10:51:59.073Z,14.57
2022-11-09T10:54:00.636Z,14.76
2022-11-09T10:56:01.979Z,14.91
2022-11-09T10:58:02.856Z,14.79
2022-11-09T11:00:04.431Z,14.8
2022-11-09T11:02:05.966Z,14.91
2022-11-09T11:04:06.946Z,14.94
2022-11-09T11:06:08.167Z,15.06
2022-11-09T11:08:08.995Z,15.31
2022-11-09T11:10:10.025Z,15.21
2022-11-09T11:12:11.379Z,15.08
2022-11-09T11:14:12.428Z,15.31
2022-11-09T11:16:14.463Z,15.06
2022-11-09T11:18:15.225Z,15.21
2022-11-09T11:20:16.405Z,15.46
2022-11-09T11:22:18.037Z,15.07
2022-11-09T11:24:19.024Z,14.99
2022-11-09T11:26:20.696Z,15.01
2022-11-09T11:28:21.516Z,14.91
2022-11-09T11:30:22.910Z,14.77
2022-11-09T11:32:23.973Z,14.7
2022-11-09T11:34:45.953Z,14.69
2022-11-09T11:36:28.814Z,14.66
2022-11-09T11:38:30.028Z,14.78
2022-11-09T11:40:31.411Z,14.75
2022-11-09T11:42:33.061Z,14.74
2022-11-09T11:44:34.619Z,14.73
2022-11-09T11:46:36.440Z,14.85
2022-11-09T11:48:37.830Z,14.71
2022-11-09T11:50:38.801Z,14.81
2022-11-09T11:52:39.700Z,14.83
2022-11-09T11:56:42.781Z,14.82
2022-11-09T11:58:43.779Z,14.72
2022-11-09T12:00:44.730Z,14.8
2022-11-09T12:02:46.245Z,14.83
2022-11-09T12:04:47.742Z,14.89
2022-11-09T12:06:48.749Z,14.97
2022-11-09T12:08:49.952Z,14.92
2022-11-09T12:10:51.507Z,14.86
2022-11-09T12:12:52.405Z,14.91
2022-11-09T12:14:54.071Z,14.84
2022-11-09T12:16:55.129Z,14.74
2022-11-09T12:18:56.559Z,14.79
2022-11-09T12:20:58.352Z,14.9
2022-11-09T12:22:59.541Z,14.84
2022-11-09T12:25:00.521Z,14.85
2022-11-09T12:27:18.200Z,15.02
2022-11-09T12:29:03.639Z,15.03
2022-11-09T12:31:04.571Z,15.09
2022-11-09T12:33:05.633Z,15.14
2022-11-09T12:35:07.373Z,15.23
2022-11-09T12:37:08.718Z,15.3
2022-11-09T12:39:10.171Z,15.31
2022-11-09T12:41:11.088Z,15.28
2022-11-09T12:43:12.770Z,15.13
2022-11-09T12:45:14.101Z,15.28
2022-11-09T12:47:15.775Z,15.3
2022-11-09T12:49:16.756Z,15.49
2022-11-09T12:51:17.879Z,15.55
2022-11-09T12:53:18.971Z,15.54
2022-11-09T12:55:20.010Z,15.54
2022-11-09T12:57:21.142Z,15.36
2022-11-09T12:59:22.449Z,15.39
2022-11-09T13:01:23.992Z,15.33
2022-11-09T13:03:25.562Z,15.24
2022-11-09T13:05:26.432Z,15.19
2022-11-09T13:07:27.728Z,15.16
2022-11-09T13:09:39.984Z,15.13
2022-11-09T13:11:30.317Z,15.06
2022-11-09T13:13:31.349Z,15.13
2022-11-09T13:15:32.709Z,15.09
2022-11-09T13:17:33.585Z,15.01
2022-11-09T13:19:35.441Z,15.03
2022-11-09T13:21:36.989Z,15.01
2022-11-09T13:23:59.725Z,14.99
2022-11-09T13:25:39.574Z,14.97
2022-11-09T13:27:40.429Z,14.92
2022-11-09T13:29:41.885Z,14.95
2022-11-09T13:31:43.496Z,14.85
2022-11-09T13:33:45.307Z,14.85
2022-11-09T13:37:47.572Z,14.79
2022-11-09T13:39:48.679Z,14.79
2022-11-09T13:41:49.658Z,14.75
2022-11-09T13:43:50.745Z,14.74
2022-11-09T13:45:52.128Z,14.67
2022-11-09T13:47:52.937Z,14.69
2022-11-09T13:49:54.207Z,14.68
2022-11-09T13:51:55.388Z,14.62
2022-11-09T13:53:56.901Z,14.62
2022-11-09T13:55:58.180Z,14.62
2022-11-09T13:57:59.470Z,14.61
2022-11-09T14:00:00.937Z,14.62
2022-11-09T14:02:01.911Z,14.65
2022-11-09T14:04:03.354Z,14.57
2022-11-09T14:06:04.464Z,14.57
2022-11-09T14:08:05.958Z,14.52
2022-11-09T14:10:51.491Z,14.56
2022-11-09T14:12:52.606Z,14.44
2022-11-09T14:14:54.462Z,14.44
2022-11-09T14:16:55.593Z,14.39
2022-11-09T14:18:57.113Z,14.39
2022-11-09T14:20:57.653Z,14.31
2022-11-09T14:22:58.648Z,14.34
2022-11-09T14:25:00.076Z,14.28
2022-11-09T14:27:01.311Z,14.3
2022-11-09T14:29:02.607Z,14.27
2022-11-09T14:31:04.377Z,14.27
2022-11-09T14:33:05.957Z,14.23
2022-11-09T14:35:07.478Z,14.17
2022-11-09T14:37:09.308Z,14.18
2022-11-09T14:39:10.739Z,14.16
2022-11-09T14:41:12.476Z,14.14
2022-11-09T14:43:14.245Z,14.08
2022-11-09T14:45:15.401Z,14.08
2022-11-09T14:47:16.516Z,14.04
2022-11-09T14:49:17.726Z,13.96
2022-11-09T14:51:19.023Z,13.93
2022-11-09T14:53:20.000Z,13.96
2022-11-09T14:55:21.346Z,13.9
2022-11-09T14:57:22.364Z,13.91
2022-11-09T14:59:23.427Z,13.83
2022-11-09T15:01:25.032Z,13.81
2022-11-09T15:03:26.654Z,13.8
2022-11-09T15:05:27.542Z,13.79
2022-11-09T15:07:29.433Z,13.8
2022-11-09T15:09:30.675Z,13.77
2022-11-09T15:13:33.427Z,13.77
2022-11-09T15:15:34.460Z,13.76
2022-11-09T15:17:36.158Z,13.74
2022-11-09T15:19:37.065Z,13.71
2022-11-09T15:21:38.838Z,13.71
2022-11-09T15:23:40.667Z,13.63
2022-11-09T15:25:42.001Z,13.69
2022-11-09T15:27:43.150Z,13.75
2022-11-09T15:29:44.463Z,13.69
2022-11-09T15:31:45.360Z,13.67
2022-11-09T15:33:46.257Z,13.64
2022-11-09T15:35:47.265Z,13.62
2022-11-09T15:37:48.540Z,13.6
2022-11-09T15:39:49.983Z,13.64
2022-11-09T15:41:51.551Z,13.68
2022-11-09T15:43:53.380Z,13.73
2022-11-09T15:45:54.467Z,13.73
2022-11-09T15:47:55.918Z,13.7
2022-11-09T15:49:56.912Z,13.68
2022-11-09T15:51:58.728Z,13.68
2022-11-09T15:54:00.138Z,13.65
2022-11-09T15:56:01.960Z,13.58
2022-11-09T15:58:03.642Z,13.64
2022-11-09T16:00:07.995Z,13.6
2022-11-09T16:02:07.347Z,13.55
2022-11-09T16:04:08.402Z,13.62
2022-11-09T16:06:10.240Z,13.56
2022-11-09T16:08:11.326Z,13.57
2022-11-09T16:10:12.636Z,13.64
2022-11-09T16:12:14.504Z,13.56
2022-11-09T16:14:15.885Z,13.57
2022-11-09T16:16:17.396Z,13.53
2022-11-09T16:18:22.984Z,13.54
2022-11-09T16:20:20.535Z,13.54
2022-11-09T16:22:22.168Z,13.5
2022-11-09T16:24:23.896Z,13.52
2022-11-09T16:26:25.433Z,13.48
2022-11-09T16:28:26.472Z,13.41
2022-11-09T16:30:27.755Z,13.41
2022-11-09T16:32:28.775Z,13.44
2022-11-09T16:34:30.649Z,13.46
2022-11-09T16:36:31.777Z,13.45
2022-11-09T16:38:33.036Z,13.51
2022-11-09T16:40:34.403Z,13.58
2022-11-09T16:42:35.453Z,13.5
2022-11-09T16:44:36.966Z,13.48
2022-11-09T16:46:38.697Z,13.46
2022-11-09T16:48:40.191Z,13.56
2022-11-09T16:50:41.533Z,13.46
2022-11-09T16:52:43.428Z,13.41
2022-11-09T16:54:45.190Z,13.36
2022-11-09T16:56:46.630Z,13.34
2022-11-09T16:58:48.496Z,13.36
2022-11-09T17:01:09.171Z,13.34
2022-11-09T17:02:50.522Z,13.33
2022-11-09T17:04:51.896Z,13.32
2022-11-09T17:06:52.825Z,13.32
2022-11-09T17:08:54.609Z,13.32
2022-11-09T17:10:56.327Z,13.26
2022-11-09T17:12:57.254Z,13.19
2022-11-09T17:14:58.181Z,13.27
2022-11-09T17:17:00.080Z,13.26
2022-11-09T17:19:00.930Z,13.25
2022-11-09T17:21:01.980Z,13.21
2022-11-09T17:23:03.675Z,13.22
2022-11-09T17:25:05.490Z,13.16
2022-11-09T17:27:06.563Z,13.09
2022-11-09T17:29:07.672Z,13.11
2022-11-09T17:31:09.401Z,13.06
2022-11-09T17:33:11.197Z,13.03
2022-11-09T17:37:14.375Z,12.95
2022-11-09T17:39:15.793Z,13.02
2022-11-09T17:41:16.775Z,12.96
2022-11-09T17:43:18.074Z,12.87
2022-11-09T17:45:19.890Z,12.87
2022-11-09T17:47:21.194Z,12.85
2022-11-09T17:49:22.904Z,12.81
2022-11-09T17:51:24.192Z,12.81
2022-11-09T17:53:25.165Z,12.76
2022-11-09T17:55:26.663Z,12.78
2022-11-09T17:57:27.814Z,12.75
2022-11-09T17:59:29.698Z,12.78
2022-11-09T18:01:30.725Z,12.73
2022-11-09T18:03:31.883Z,12.66
2022-11-09T18:05:33.138Z,12.65
2022-11-09T18:07:34.798Z,12.58
2022-11-09T18:09:41.096Z,12.72
2022-11-09T18:11:37.695Z,12.7
2022-11-09T18:13:38.758Z,12.74
2022-11-09T18:15:40.466Z,12.65
2022-11-09T18:17:42.389Z,12.64
2022-11-09T18:19:43.632Z,12.68
2022-11-09T18:21:45.212Z,12.65
2022-11-09T18:23:46.677Z,12.62
2022-11-09T18:25:47.622Z,12.63
2022-11-09T18:27:49.009Z,12.62
2022-11-09T18:29:50.724Z,12.55
2022-11-09T18:31:52.597Z,12.56
2022-11-09T18:33:54.052Z,12.5
2022-11-09T18:35:54.997Z,12.53
2022-11-09T18:37:56.758Z,12.6
2022-11-09T18:39:58.398Z,12.57
2022-11-09T18:41:59.531Z,12.55
2022-11-09T18:44:00.708Z,12.54
2022-11-09T18:46:02.020Z,12.57
2022-11-09T18:48:03.783Z,12.53
2022-11-09T18:50:12.795Z,12.54
2022-11-09T18:52:06.215Z,12.54
2022-11-09T18:54:07.967Z,12.54
2022-11-09T18:56:08.859Z,12.51
2022-11-09T18:58:10.721Z,12.51
2022-11-09T19:00:12.585Z,12.51
2022-11-09T19:02:13.840Z,12.53
2022-11-09T19:04:15.343Z,12.52
2022-11-09T19:08:18.119Z,12.56
2022-11-09T19:10:19.689Z,12.56
2022-11-09T19:12:21.260Z,12.55
2022-11-09T19:14:22.381Z,12.56
2022-11-09T19:16:23.312Z,12.52
2022-11-09T19:18:24.423Z,12.52
2022-11-09T19:20:26.034Z,12.51
2022-11-09T19:22:27.323Z,12.45
2022-11-09T19:24:29.242Z,12.43
2022-11-09T19:26:30.898Z,12.41
2022-11-09T19:28:32.448Z,12.37
2022-11-09T19:30:33.661Z,12.33
2022-11-09T19:32:34.929Z,12.3
2022-11-09T19:34:36.253Z,12.29
2022-11-09T19:36:37.254Z,12.27
2022-11-09T19:38:38.404Z,12.27
2022-11-09T19:40:40.255Z,12.26
2022-11-09T19:42:41.672Z,12.31
2022-11-09T19:44:42.600Z,12.29
2022-11-09T19:46:43.477Z,12.28
2022-11-09T19:48:44.505Z,12.24
2022-11-09T19:50:45.583Z,12.21
2022-11-09T19:52:47.228Z,12.25
2022-11-09T19:54:49.121Z,12.23
2022-11-09T19:56:50.939Z,12.25
2022-11-09T19:58:52.490Z,12.2
2022-11-09T20:00:54.025Z,12.12
2022-11-09T20:02:55.237Z,12.03
2022-11-09T20:04:56.175Z,11.97
2022-11-09T20:06:57.310Z,11.91
2022-11-09T20:08:58.657Z,11.91
2022-11-09T20:10:59.790Z,11.87
2022-11-09T20:13:01.054Z,11.88
2022-11-09T20:15:02.463Z,11.89
2022-11-09T20:17:03.853Z,11.87
2022-11-09T20:19:04.752Z,11.87
2022-11-09T20:21:06.805Z,11.84
2022-11-09T20:23:08.209Z,11.84
2022-11-09T20:25:09.418Z,11.81
2022-11-09T20:27:10.898Z,11.77
2022-11-09T20:29:12.384Z,11.72
2022-11-09T20:31:13.465Z,11.72
2022-11-09T20:33:14.990Z,11.69
2022-11-09T20:35:16.566Z,11.67
2022-11-09T20:37:17.535Z,11.64
2022-11-09T20:39:18.762Z,11.63
2022-11-09T20:41:24.327Z,11.68
2022-11-09T20:43:21.583Z,11.69
2022-11-09T20:45:23.246Z,11.71
2022-11-09T20:47:42.285Z,11.63
2022-11-09T20:49:25.810Z,11.6
2022-11-09T20:51:27.242Z,11.56
2022-11-09T20:53:29.179Z,11.53
2022-11-09T20:55:30.231Z,11.49
2022-11-09T20:58:15.382Z,11.49
2022-11-09T21:00:19.253Z,11.5
2022-11-09T21:02:18.404Z,11.48
2022-11-09T21:04:19.867Z,11.41
2022-11-09T21:06:21.395Z,11.38
2022-11-09T21:08:23.291Z,11.43
2022-11-09T21:10:24.782Z,11.44
2022-11-09T21:12:34.890Z,11.42
2022-11-09T21:14:27.025Z,11.38
2022-11-09T21:16:28.505Z,11.35
2022-11-09T21:18:29.437Z,11.34
2022-11-09T21:20:30.983Z,11.36
2022-11-09T21:22:32.207Z,11.36
2022-11-09T21:26:35.477Z,11.33
2022-11-09T21:28:36.536Z,11.35
2022-11-09T21:30:38.297Z,11.33
2022-11-09T21:32:39.668Z,11.31
2022-11-09T21:34:41.387Z,11.34
2022-11-09T21:36:43.311Z,11.35
2022-11-09T21:38:44.206Z,11.3
2022-11-09T21:40:45.527Z,11.29
2022-11-09T21:42:47.385Z,11.31
2022-11-09T21:44:48.361Z,11.27
2022-11-09T21:46:49.818Z,11.22
2022-11-09T21:48:51.198Z,11.22
2022-11-09T21:50:52.547Z,11.19
2022-11-09T21:52:53.527Z,11.17
2022-11-09T21:54:54.732Z,11.15
2022-11-09T21:56:56.603Z,11.1
2022-11-09T21:58:57.684Z,11.07
2022-11-09T22:00:59.323Z,11.05
2022-11-09T22:03:00.340Z,11.1
2022-11-09T22:05:01.726Z,11.07
2022-11-09T22:07:02.810Z,11.06
2022-11-09T22:09:03.656Z,11.02
2022-11-09T22:11:05.018Z,10.98
2022-11-09T22:13:06.073Z,11.03
2022-11-09T22:15:07.930Z,10.98
2022-11-09T22:17:09.346Z,11.01
2022-11-09T22:19:10.640Z,10.99
2022-11-09T22:21:12.490Z,10.99
2022-11-09T22:23:14.144Z,10.92
2022-11-09T22:25:15.108Z,10.89
2022-11-09T22:27:16.359Z,10.89
2022-11-09T22:29:18.138Z,10.87
2022-11-09T22:31:19.624Z,10.81
2022-11-09T22:33:26.008Z,10.81
2022-11-09T22:35:22.365Z,10.81
2022-11-09T22:37:23.414Z,10.81
2022-11-09T22:39:24.885Z,10.81
2022-11-09T22:41:26.479Z,10.83
2022-11-09T22:43:27.530Z,10.82
2022-11-09T22:45:29.400Z,10.8
2022-11-09T22:47:31.112Z,10.85
2022-11-09T22:49:32.309Z,10.88
2022-11-09T22:51:33.698Z,10.84
2022-11-09T22:53:34.726Z,10.88
2022-11-09T22:55:35.892Z,10.88
2022-11-09T22:57:37.710Z,10.9
2022-11-09T22:59:39.051Z,10.98
2022-11-09T23:01:40.256Z,10.91
2022-11-09T23:03:41.864Z,10.9
2022-11-09T23:05:43.140Z,10.9
2022-11-09T23:07:44.094Z,10.85
2022-11-09T23:09:44.989Z,10.81
2022-11-09T23:11:46.067Z,10.8
2022-11-09T23:13:47.692Z,10.82
2022-11-09T23:15:49.105Z,10.8
2022-11-09T23:17:50.094Z,10.78
2022-11-09T23:19:51.149Z,10.79
2022-11-09T23:21:52.351Z,10.78
2022-11-09T23:23:54.233Z,10.81
2022-11-09T23:25:55.393Z,10.8
2022-11-09T23:27:56.577Z,10.81
2022-11-09T23:29:58.227Z,10.82
2022-11-09T23:32:00.152Z,10.81
2022-11-09T23:34:03.635Z,10.8
2022-11-09T23:36:02.424Z,10.76
2022-11-09T23:38:03.935Z,10.71
2022-11-09T23:40:05.168Z,10.68
2022-11-09T23:42:06.124Z,10.67
2022-11-09T23:44:07.802Z,10.65
2022-11-09T23:46:09.059Z,10.57
2022-11-09T23:48:10.221Z,10.63
2022-11-09T23:50:11.942Z,10.58
2022-11-09T23:52:13.662Z,10.55
2022-11-09T23:54:14.869Z,10.52
2022-11-09T23:56:16.057Z,10.52
2022-11-09T23:58:17.498Z,10.55
